Annette Island, AK

3:13 AM AKDT on July 30, 2014 (GMT -0800)
Metlakatla (PAMM) Elev 0 ft | 55.13 °N, 131.58 °W | Change Station

Current weather conditions updated 57 minutes ago

Mostly Cloudy
Mostly Cloudy
55 °F
Feels Like 55 °F
N
4
Wind Variable Wind from ESE

Today is forecast to be nearly the same temperature as yesterday.

Today
High -- | Low -- °F
--% Chance of Precip.
Yesterday
High -- | Low -- °F
Precip. -- in
4:51 AM 8:52 PM
Waxing Crescent, 11% visible
Pressure 30.20 in
Visibility 10.0 miles
Clouds Mostly Cloudy 6000 ft
Dew Point 52 °F
Humidity 88%
Rainfall 0.00 in
Snow Depth Not available.
UV 0 out of 12
Pollen Not available.
Air Quality Not available.
Flu Activity Not available.
METAR PAMM 301016Z AUTO 12003KT 10SM BKN060 13/11 A3020 RMK AO1

More Conditions Fewer Conditions

Pressure 30.20 in
Visibility 10.0 miles
Clouds Mostly Cloudy 6000 ft
Dew Point 52 °F
Humidity 88%
Rainfall 0.00 in
Snow Depth Not available.
UV 0 out of 12
Pollen Not available.
Air Quality Not available.
Flu Activity Not available.
METAR PAMM 301016Z AUTO 12003KT 10SM BKN060 13/11 A3020 RMK AO1

More Conditions Fewer Conditions

10-Day Weather Forecast

Almanac

Astronomy

Jul. 30, 2014 Rise Set
Actual Time 4:51 AM AKDT 8:52 PM AKDT
Civil Twilight 4:04 AM AKDT 9:39 PM AKDT
Nautical Twilight 2:55 AM AKDT 10:47 PM AKDT
Astronomical Twilight 1:25 AM AKDT 12:20 AM AKDT
Moon 9:16 AM AKDT 9:47 PM AKDT
Length of Visible Light 17h 34m
Length of Day
16h 00m
Tomorrow will be 3m 38s shorter.
Waxing Crescent, 11% of the Moon is Illuminated
Today
Waxing Crescent
Aug 3
First Quarter
Aug 10
Full
Aug 17
Last Quarter
Aug 25
New

Today's Extremes

State Highs State Lows

Community

WunderPhotos

Upload Photos

1,739,039 photos uploaded!

WunderBlogs® & News

Nearby

Snow Depth

Station Depth Elevation
Long Lake 0 in 820 ft
Upper Tsaina River 0 in 1750 ft
Moraine 0 in 2100 ft
Nuka Glacier 109 in 1250 ft
Grouse Creek Divide 0 in 700 ft

Earthquake Activity

City Distance Mag. Time & Date
No recent earthquake activity has been reported nearby.
Minimum magnitude displayed is 2.5.

Coastal Water Temperatures

Place Temperature
No Stations Reporting

Nearby Weather Stations

Station Location Temp. Dew Point Humidity Wind Precip. Elev Updated Type
CRN NOAA/NWS ANNETTE ISLAND 6 S AK , Metlakatla, AK 55 °F - - North  at  - 0.00 in / hr 104 ft 2:30 AM AKDT MADIS
Bailey Blvd, Ketchikan, AK 54.4 °F 54 °F 97% South  at  0.0 mph 0.00 in / hr 240 ft 3:10 AM AKDT Normal

Show More Stations Show Fewer Stations